createdAt,value
2023-04-13T00:00:21.754Z,85.09
2023-04-13T00:03:24.742Z,84.72
2023-04-13T00:06:29.123Z,83.54
2023-04-13T00:09:31.975Z,83.02
2023-04-13T00:12:34.973Z,82.42
2023-04-13T00:15:43.198Z,80.85
2023-04-13T00:18:46.197Z,81.04
2023-04-13T00:21:49.001Z,78.58
2023-04-13T00:24:54.560Z,79.35
2023-04-13T00:27:57.216Z,77.69
2023-04-13T00:31:01.375Z,77.80
2023-04-13T00:34:04.241Z,76.70
2023-04-13T00:37:07.444Z,77.16
2023-04-13T00:40:11.524Z,76.97
2023-04-13T00:43:15.000Z,75.55
2023-04-13T00:46:19.810Z,75.21
2023-04-13T00:49:23.077Z,76.15
2023-04-13T00:52:25.778Z,75.52
2023-04-13T00:55:28.838Z,74.99
2023-04-13T00:58:31.505Z,74.95
2023-04-13T01:01:35.812Z,74.79
2023-04-13T01:04:38.776Z,74.81
2023-04-13T01:07:49.310Z,76.05
2023-04-13T01:10:55.240Z,75.15
2023-04-13T01:14:02.708Z,75.90
2023-04-13T01:17:10.037Z,76.95
2023-04-13T01:20:14.411Z,77.41
2023-04-13T01:23:26.649Z,76.96
2023-04-13T01:26:38.749Z,77.91
2023-04-13T01:29:43.518Z,78.12
2023-04-13T01:32:46.417Z,80.06
2023-04-13T01:35:50.259Z,80.45
2023-04-13T01:38:53.028Z,79.88
2023-04-13T01:41:56.269Z,77.95
2023-04-13T01:45:00.247Z,78.15
2023-04-13T01:48:07.998Z,79.09
2023-04-13T01:51:13.594Z,78.28
2023-04-13T01:54:19.326Z,78.99
2023-04-13T01:57:23.066Z,79.49
2023-04-13T02:00:31.942Z,79.13
2023-04-13T02:03:36.064Z,78.90
2023-04-13T02:06:39.489Z,78.96
2023-04-13T02:09:42.430Z,78.13
2023-04-13T02:12:45.137Z,79.01
2023-04-13T02:15:48.970Z,78.60
2023-04-13T02:18:51.794Z,79.14
2023-04-13T02:21:54.293Z,78.71
2023-04-13T02:24:57.705Z,78.19
2023-04-13T02:28:01.585Z,77.03
2023-04-13T02:31:06.137Z,75.43
2023-04-13T02:34:08.942Z,75.44
2023-04-13T02:37:11.902Z,73.59
2023-04-13T02:40:14.487Z,71.71
2023-04-13T02:43:17.696Z,71.56
2023-04-13T02:46:22.095Z,71.22
2023-04-13T02:49:24.813Z,71.22
2023-04-13T02:52:27.386Z,72.31
2023-04-13T02:55:29.878Z,72.84
2023-04-13T02:58:32.897Z,72.39
2023-04-13T03:01:36.823Z,72.89
2023-04-13T03:04:39.391Z,73.03
2023-04-13T03:07:42.166Z,73.45
2023-04-13T03:10:45.604Z,73.51
2023-04-13T03:13:48.107Z,73.53
2023-04-13T03:16:52.095Z,73.77
2023-04-13T03:19:54.883Z,74.37
2023-04-13T03:22:58.591Z,74.93
2023-04-13T03:26:01.115Z,73.59
2023-04-13T03:29:04.033Z,73.20
2023-04-13T03:32:08.090Z,73.38
2023-04-13T03:35:11.435Z,71.71
2023-04-13T03:38:14.140Z,70.74
2023-04-13T03:41:17.190Z,70.11
2023-04-13T03:44:19.924Z,69.61
2023-04-13T03:47:23.814Z,69.38
2023-04-13T03:50:26.524Z,68.83
2023-04-13T03:53:29.404Z,69.93
2023-04-13T03:56:32.430Z,70.00
2023-04-13T03:59:35.292Z,68.21
2023-04-13T04:02:40.586Z,67.36
2023-04-13T04:05:43.448Z,67.17
2023-04-13T04:08:49.591Z,65.64
2023-04-13T04:11:52.383Z,65.06
2023-04-13T04:14:54.888Z,64.63
2023-04-13T04:17:59.218Z,64.38
2023-04-13T04:21:03.009Z,63.83
2023-04-13T04:24:08.897Z,64.13
2023-04-13T04:27:14.351Z,63.48
2023-04-13T04:30:18.975Z,63.29
2023-04-13T04:33:23.515Z,62.93
2023-04-13T04:36:26.478Z,62.46
2023-04-13T04:39:32.825Z,62.86
2023-04-13T04:42:35.463Z,62.90
2023-04-13T04:45:38.623Z,63.76
2023-04-13T04:48:42.757Z,63.54
2023-04-13T04:51:45.448Z,63.41
2023-04-13T04:54:48.199Z,63.02
2023-04-13T04:57:50.867Z,62.35
2023-04-13T05:00:53.782Z,61.87
2023-04-13T05:03:57.873Z,61.04
2023-04-13T05:07:00.529Z,60.92
2023-04-13T05:10:03.945Z,60.68
2023-04-13T05:13:07.888Z,60.60
2023-04-13T05:16:11.150Z,60.32
2023-04-13T05:19:15.219Z,59.48
2023-04-13T05:22:17.874Z,60.30
2023-04-13T05:25:20.570Z,59.81
2023-04-13T05:28:23.121Z,59.40
2023-04-13T05:31:26.058Z,59.69
2023-04-13T05:34:30.475Z,58.95
2023-04-13T05:37:33.055Z,59.50
2023-04-13T05:40:36.118Z,58.85
2023-04-13T05:43:38.725Z,58.05
2023-04-13T05:46:41.716Z,57.85
2023-04-13T05:49:45.725Z,58.29
2023-04-13T05:52:48.320Z,58.37
2023-04-13T05:55:51.164Z,57.90
2023-04-13T05:58:54.200Z,57.31
2023-04-13T06:01:57.299Z,57.66
2023-04-13T06:05:02.043Z,56.98
2023-04-13T06:08:04.866Z,56.42
2023-04-13T06:11:08.290Z,55.84
2023-04-13T06:14:10.847Z,55.83
2023-04-13T06:17:13.340Z,55.87
2023-04-13T06:20:17.592Z,54.84
2023-04-13T06:23:20.247Z,55.55
2023-04-13T06:26:22.902Z,55.61
2023-04-13T06:29:25.660Z,56.22
2023-04-13T06:32:28.457Z,57.17
2023-04-13T06:35:33.296Z,57.02
2023-04-13T06:38:35.928Z,57.60
2023-04-13T06:41:38.538Z,55.44
2023-04-13T06:44:41.281Z,54.24
2023-04-13T06:47:44.402Z,54.41
2023-04-13T06:50:48.415Z,53.76
2023-04-13T06:53:51.430Z,53.47
2023-04-13T06:56:53.944Z,51.65
2023-04-13T06:59:56.674Z,50.39
2023-04-13T07:02:59.558Z,50.38
2023-04-13T07:06:03.941Z,49.57
2023-04-13T07:09:06.618Z,49.59
2023-04-13T07:12:09.308Z,50.49
2023-04-13T07:15:12.073Z,50.38
2023-04-13T07:18:14.774Z,50.51
2023-04-13T07:21:18.787Z,50.43
2023-04-13T07:24:21.382Z,49.09
2023-04-13T07:27:24.088Z,49.40
2023-04-13T07:30:27.069Z,49.49
2023-04-13T07:33:29.640Z,49.59
2023-04-13T07:36:33.669Z,49.87
2023-04-13T07:39:36.368Z,48.90
2023-04-13T07:42:38.939Z,49.11
2023-04-13T07:45:41.554Z,47.91
2023-04-13T07:48:44.776Z,46.92
2023-04-13T07:51:48.856Z,46.99
2023-04-13T07:54:51.774Z,48.78
2023-04-13T07:57:54.712Z,48.95
2023-04-13T08:00:57.379Z,48.23
2023-04-13T08:04:00.299Z,46.83
2023-04-13T08:07:05.636Z,45.97
2023-04-13T08:10:09.579Z,46.60
2023-04-13T08:13:12.255Z,47.37
2023-04-13T08:16:15.934Z,48.31
2023-04-13T08:19:18.556Z,46.17
2023-04-13T08:22:22.640Z,45.71
2023-04-13T08:25:25.205Z,47.35
2023-04-13T08:28:27.814Z,46.16
2023-04-13T08:31:32.268Z,44.96
2023-04-13T08:34:35.067Z,43.97
2023-04-13T08:37:39.515Z,42.86
2023-04-13T08:40:42.179Z,43.23
2023-04-13T08:43:44.842Z,43.11
2023-04-13T08:46:47.775Z,43.61
2023-04-13T08:49:51.243Z,43.93
2023-04-13T08:52:55.556Z,47.36
2023-04-13T08:56:00.735Z,49.55
2023-04-13T08:59:06.832Z,50.02
2023-04-13T09:02:09.837Z,49.58
2023-04-13T09:05:16.346Z,48.64
2023-04-13T09:08:21.261Z,47.90
2023-04-13T09:11:25.301Z,47.56
2023-04-13T09:14:27.899Z,46.00
2023-04-13T09:17:32.225Z,46.02
2023-04-13T09:20:35.119Z,46.69
2023-04-13T09:23:39.211Z,44.94
2023-04-13T09:26:43.112Z,44.19
2023-04-13T09:29:50.472Z,43.03
2023-04-13T09:33:05.191Z,41.43
2023-04-13T09:36:11.602Z,40.63
2023-04-13T09:39:15.948Z,40.16
2023-04-13T09:42:19.483Z,40.41
2023-04-13T09:45:21.922Z,40.50
2023-04-13T09:48:24.456Z,41.38
2023-04-13T09:51:27.579Z,43.32
2023-04-13T09:54:31.733Z,43.20
2023-04-13T09:57:34.557Z,44.32
2023-04-13T10:00:38.349Z,43.65
2023-04-13T10:03:40.894Z,42.17
2023-04-13T10:06:44.852Z,43.37
2023-04-13T10:09:50.984Z,41.84
2023-04-13T10:12:55.727Z,42.14
2023-04-13T10:16:11.104Z,41.02
2023-04-13T10:19:15.409Z,40.64
2023-04-13T10:22:20.107Z,40.46
2023-04-13T10:25:33.295Z,40.88
2023-04-13T10:28:43.824Z,39.18
2023-04-13T10:31:47.758Z,39.07
2023-04-13T10:34:51.056Z,38.82
2023-04-13T10:37:57.905Z,38.74
2023-04-13T10:41:03.487Z,37.75
2023-04-13T10:44:08.042Z,38.43
2023-04-13T10:47:11.267Z,40.50
2023-04-13T10:50:18.364Z,41.23
2023-04-13T10:53:26.964Z,41.27
2023-04-13T10:56:31.067Z,41.31
2023-04-13T10:59:53.582Z,43.35
2023-04-13T11:03:02.431Z,40.97
2023-04-13T11:06:05.426Z,40.47
2023-04-13T11:09:11.533Z,39.58
2023-04-13T11:12:17.694Z,40.71
2023-04-13T11:15:21.971Z,40.38
2023-04-13T11:18:27.938Z,39.99
2023-04-13T11:21:31.746Z,38.97
2023-04-13T11:24:34.940Z,39.04
2023-04-13T11:27:39.147Z,39.95
2023-04-13T11:30:41.891Z,41.37
2023-04-13T11:33:49.685Z,42.20
2023-04-13T11:37:00.417Z,48.81
2023-04-13T11:40:10.288Z,61.54
2023-04-13T11:43:15.561Z,68.79
2023-04-13T11:46:25.205Z,72.23
2023-04-13T11:49:28.196Z,73.06
2023-04-13T11:52:31.744Z,74.41
2023-04-13T11:55:50.150Z,72.31
2023-04-13T11:58:57.674Z,69.73
2023-04-13T12:02:05.283Z,66.85
2023-04-13T12:05:12.430Z,60.11
2023-04-13T12:08:22.756Z,53.65
2023-04-13T12:14:54.095Z,49.90
2023-04-13T12:17:57.651Z,48.31
2023-04-13T12:21:02.737Z,45.53
2023-04-13T12:24:06.162Z,47.71
2023-04-13T12:27:18.377Z,50.50
2023-04-13T12:30:24.078Z,52.76
2023-04-13T12:33:26.680Z,56.27
2023-04-13T12:36:31.601Z,57.38
2023-04-13T12:39:34.312Z,56.64
2023-04-13T12:42:38.013Z,56.94
2023-04-13T12:45:41.927Z,56.69
2023-04-13T12:48:44.826Z,58.53
2023-04-13T12:51:47.430Z,60.44
2023-04-13T12:54:49.934Z,62.06
2023-04-13T12:57:52.488Z,62.89
2023-04-13T13:00:56.767Z,62.80
2023-04-13T13:03:59.456Z,63.41
2023-04-13T13:07:02.089Z,62.91
2023-04-13T13:10:09.570Z,62.87
2023-04-13T13:13:18.972Z,60.61
2023-04-13T13:16:22.885Z,60.35
2023-04-13T13:19:25.690Z,57.21
2023-04-13T13:22:29.136Z,54.75
2023-04-13T13:25:32.582Z,53.99
2023-04-13T13:28:36.366Z,54.85
2023-04-13T13:31:41.279Z,54.96
2023-04-13T13:34:43.993Z,55.30
2023-04-13T13:37:46.591Z,53.04
2023-04-13T13:40:49.230Z,46.68
2023-04-13T13:43:51.870Z,48.40
2023-04-13T13:46:55.840Z,45.90
2023-04-13T13:49:58.436Z,45.47
2023-04-13T13:53:04.236Z,47.52
2023-04-13T13:56:07.903Z,47.22
2023-04-13T13:59:10.481Z,46.80
2023-04-13T14:02:14.545Z,44.85
2023-04-13T14:05:17.565Z,44.85
2023-04-13T14:08:20.076Z,45.68
2023-04-13T14:11:23.013Z,47.50
2023-04-13T14:14:25.657Z,45.43
2023-04-13T14:17:29.639Z,44.26
2023-04-13T14:20:33.105Z,45.04
2023-04-13T14:23:37.413Z,49.76
2023-04-13T14:26:40.009Z,50.08
2023-04-13T14:29:42.648Z,48.56
2023-04-13T14:32:47.432Z,46.64
2023-04-13T14:35:50.092Z,45.00
2023-04-13T14:38:52.730Z,45.37
2023-04-13T14:41:56.612Z,46.09
2023-04-13T14:44:59.712Z,47.66
2023-04-13T14:48:03.834Z,50.93
2023-04-13T14:51:07.053Z,52.80
2023-04-13T14:54:10.014Z,52.57
2023-04-13T14:57:12.801Z,51.44
2023-04-13T15:00:21.578Z,49.78
2023-04-13T15:03:25.874Z,50.25
2023-04-13T15:06:28.802Z,52.69
2023-04-13T15:09:31.630Z,54.90
2023-04-13T15:12:34.288Z,55.65
2023-04-13T15:15:38.512Z,56.58
2023-04-13T15:18:42.452Z,56.70
2023-04-13T15:21:45.502Z,57.12
2023-04-13T15:24:48.637Z,57.05
2023-04-13T15:27:52.280Z,57.51
2023-04-13T15:30:54.752Z,59.24
2023-04-13T15:33:58.637Z,60.52
2023-04-13T15:37:01.164Z,62.08
2023-04-13T15:40:07.637Z,66.43
2023-04-13T15:43:10.674Z,69.50
2023-04-13T15:46:13.423Z,70.56
2023-04-13T15:49:17.345Z,71.50
2023-04-13T15:52:19.980Z,71.77
2023-04-13T15:55:22.659Z,70.57
2023-04-13T15:58:25.493Z,66.88
2023-04-13T16:01:28.526Z,65.62
2023-04-13T16:04:32.802Z,62.84
2023-04-13T16:07:35.658Z,58.97
2023-04-13T16:10:38.332Z,51.13
2023-04-13T16:13:49.257Z,41.31
2023-04-13T16:16:53.668Z,40.26
2023-04-13T16:19:58.622Z,41.86
2023-04-13T16:23:04.770Z,44.22
2023-04-13T16:26:07.720Z,48.62
2023-04-13T16:29:10.329Z,49.36
2023-04-13T16:32:12.800Z,51.92
2023-04-13T16:35:16.982Z,51.46
2023-04-13T16:38:19.666Z,54.31
2023-04-13T16:41:22.504Z,58.51
2023-04-13T16:44:25.428Z,60.04
2023-04-13T16:47:28.197Z,59.13
2023-04-13T16:50:32.447Z,60.01
2023-04-13T16:53:35.334Z,60.08
2023-04-13T16:56:38.115Z,60.88
2023-04-13T16:59:40.918Z,61.68
2023-04-13T17:02:43.882Z,63.29
2023-04-13T17:05:48.066Z,63.01
2023-04-13T17:08:50.824Z,63.51
2023-04-13T17:11:53.485Z,65.26
2023-04-13T17:14:57.797Z,66.34
2023-04-13T17:18:01.054Z,66.82
2023-04-13T17:21:05.338Z,66.09
2023-04-13T17:24:09.309Z,68.37
2023-04-13T17:27:12.083Z,68.85
2023-04-13T17:30:14.981Z,69.52
2023-04-13T17:33:18.047Z,70.84
2023-04-13T17:36:22.610Z,71.44
2023-04-13T17:39:25.164Z,74.48
2023-04-13T17:42:28.430Z,74.42
2023-04-13T17:45:31.193Z,74.18
2023-04-13T17:48:33.858Z,74.48
2023-04-13T17:51:38.121Z,73.78
2023-04-13T17:54:40.784Z,73.80
2023-04-13T17:57:43.781Z,73.44
2023-04-13T18:00:46.566Z,73.48
2023-04-13T18:03:49.238Z,73.55
2023-04-13T18:06:54.284Z,73.20
2023-04-13T18:09:56.870Z,72.69
2023-04-13T18:13:00.608Z,73.37
2023-04-13T18:16:03.926Z,73.37
2023-04-13T18:19:06.998Z,75.41
2023-04-13T18:22:11.763Z,75.64
2023-04-13T18:25:15.842Z,76.21
2023-04-13T18:28:18.626Z,75.97
2023-04-13T18:31:21.437Z,75.76
2023-04-13T18:34:23.981Z,76.84
2023-04-13T18:37:27.887Z,77.09
2023-04-13T18:40:30.477Z,77.22
2023-04-13T18:43:33.034Z,77.81
2023-04-13T18:46:35.836Z,77.77
2023-04-13T18:49:38.446Z,79.22
2023-04-13T18:52:42.294Z,75.88
2023-04-13T18:55:48.879Z,75.34
2023-04-13T18:58:51.498Z,75.76
2023-04-13T19:01:54.197Z,77.13
2023-04-13T19:04:57.361Z,76.76
2023-04-13T19:08:06.571Z,75.65
2023-04-13T19:11:09.232Z,75.75
2023-04-13T19:14:12.110Z,76.10
2023-04-13T19:17:16.470Z,76.20
2023-04-13T19:20:19.475Z,76.83
2023-04-13T19:23:23.508Z,77.84
2023-04-13T19:26:26.273Z,78.50
2023-04-13T19:29:30.362Z,79.46
2023-04-13T19:32:33.198Z,79.39
2023-04-13T19:35:36.023Z,78.51
2023-04-13T19:38:41.198Z,78.21
2023-04-13T19:41:43.771Z,79.84
2023-04-13T19:44:46.593Z,80.08
2023-04-13T19:47:49.198Z,79.22
2023-04-13T19:50:51.910Z,78.25
2023-04-13T19:53:57.586Z,79.68
2023-04-13T19:57:00.550Z,78.20
2023-04-13T20:00:04.900Z,78.11
2023-04-13T20:03:08.390Z,77.20
2023-04-13T20:06:11.124Z,76.21
2023-04-13T20:09:15.304Z,74.80
2023-04-13T20:12:18.054Z,74.68
2023-04-13T20:15:20.774Z,76.81
2023-04-13T20:18:23.506Z,78.47
2023-04-13T20:21:30.887Z,79.48
2023-04-13T20:24:34.951Z,79.56
2023-04-13T20:27:41.822Z,78.98
2023-04-13T20:30:44.606Z,79.35
2023-04-13T20:33:48.731Z,79.25
2023-04-13T20:36:51.410Z,76.71
2023-04-13T20:39:55.271Z,75.08
2023-04-13T20:42:59.280Z,73.99
2023-04-13T20:46:01.993Z,72.54
2023-04-13T20:49:05.567Z,73.01
2023-04-13T20:52:08.347Z,73.33
2023-04-13T20:55:12.733Z,73.09
2023-04-13T20:58:15.856Z,74.04
2023-04-13T21:01:18.536Z,74.23
2023-04-13T21:04:21.180Z,75.07
2023-04-13T21:07:24.017Z,75.71
2023-04-13T21:10:27.935Z,75.52
2023-04-13T21:13:30.822Z,76.40
2023-04-13T21:16:33.430Z,76.29
2023-04-13T21:19:37.794Z,75.92
2023-04-13T21:22:40.766Z,75.39
2023-04-13T21:25:44.925Z,75.33
2023-04-13T21:28:47.552Z,75.51
2023-04-13T21:31:50.164Z,75.49
2023-04-13T21:34:54.732Z,76.20
2023-04-13T21:37:57.261Z,75.58
2023-04-13T21:41:01.193Z,75.47
2023-04-13T21:44:03.813Z,75.15
2023-04-13T21:47:07.053Z,75.54
2023-04-13T21:50:10.550Z,75.91
2023-04-13T21:53:13.115Z,75.86
2023-04-13T21:56:17.095Z,76.29
2023-04-13T21:59:19.781Z,75.82
2023-04-13T22:02:22.559Z,75.51
2023-04-13T22:05:25.101Z,75.48
2023-04-13T22:08:27.642Z,75.86
2023-04-13T22:11:31.720Z,75.83
2023-04-13T22:14:34.309Z,75.29
2023-04-13T22:17:37.180Z,74.92
2023-04-13T22:20:39.757Z,75.91
2023-04-13T22:23:42.584Z,76.89
2023-04-13T22:26:46.751Z,76.45
2023-04-13T22:29:49.361Z,76.02
2023-04-13T22:32:51.966Z,75.62
2023-04-13T22:35:55.032Z,75.10
2023-04-13T22:38:57.604Z,75.28
2023-04-13T22:42:01.630Z,74.75
2023-04-13T22:45:04.531Z,74.36
2023-04-13T22:48:07.545Z,74.18
2023-04-13T22:51:10.066Z,75.24
2023-04-13T22:54:12.645Z,75.07
2023-04-13T22:57:16.561Z,74.36
2023-04-13T23:00:20.906Z,74.42
2023-04-13T23:03:23.751Z,73.60
2023-04-13T23:06:27.553Z,73.86
2023-04-13T23:09:30.117Z,73.60
2023-04-13T23:12:33.919Z,73.97
2023-04-13T23:15:36.458Z,72.78
2023-04-13T23:18:39.040Z,73.18
2023-04-13T23:21:42.481Z,73.07
2023-04-13T23:24:45.011Z,73.26
2023-04-13T23:27:49.064Z,73.10
2023-04-13T23:30:51.620Z,72.74
2023-04-13T23:33:55.138Z,72.55
2023-04-13T23:36:57.842Z,72.54
2023-04-13T23:40:00.853Z,71.60
2023-04-13T23:43:04.737Z,71.82
2023-04-13T23:46:07.382Z,72.56
2023-04-13T23:49:10.069Z,72.79
2023-04-13T23:52:12.600Z,73.52
2023-04-13T23:55:15.533Z,74.34
2023-04-13T23:58:19.567Z,74.77
